Time,TemperatureF,DewpointF,PressureIn,WindDirection,WindDirectionDegrees,WindSpeedMPH,WindSpeedGustMPH,Humidity,HourlyPrecipIn,Conditions,Clouds,dailyrainin,SoftwareType,DateUTC
2013-01-26 00:00:00,2.3,-3.3,30.26,West,270,2.0,2.0,77,0.00,,,0.00,WUHU216HW,2013-01-26 06:00:00,
2013-01-26 00:05:00,2.2,-3.5,30.26,WNW,293,2.9,2.9,77,0.00,,,0.00,WUHU216HW,2013-01-26 06:05:00,
2013-01-26 00:10:00,2.2,-3.5,30.26,WNW,293,2.9,2.9,77,0.00,,,0.00,WUHU216HW,2013-01-26 06:10:00,
2013-01-26 00:30:00,1.8,-3.9,30.27,WNW,293,3.1,3.1,77,0.00,,,0.00,WUHU216HW,2013-01-26 06:30:00,
2013-01-26 00:35:00,2.0,-3.7,30.27,NW,315,3.1,3.1,77,0.00,,,0.00,WUHU216HW,2013-01-26 06:35:00,
2013-01-26 00:40:00,2.0,-3.7,30.27,NW,315,3.1,3.1,77,0.00,,,0.00,WUHU216HW,2013-01-26 06:40:00,
2013-01-26 01:00:00,1.4,-4.0,30.27,WNW,293,3.1,3.1,78,0.00,,,0.00,WUHU216HW,2013-01-26 07:00:00,
2013-01-26 01:05:00,1.4,-4.0,30.27,WNW,293,2.5,3.1,78,0.00,,,0.00,WUHU216HW,2013-01-26 07:05:00,
2013-01-26 01:10:00,1.4,-4.0,30.27,WNW,293,2.5,3.1,78,0.00,,,0.00,WUHU216HW,2013-01-26 07:10:00,
2013-01-26 01:30:00,0.7,-4.3,30.27,West,270,2.2,2.2,79,0.00,,,0.00,WUHU216HW,2013-01-26 07:30:00,
2013-01-26 01:35:00,0.7,-4.3,30.27,West,270,1.8,2.2,79,0.00,,,0.00,WUHU216HW,2013-01-26 07:35:00,
2013-01-26 01:40:00,0.7,-4.3,30.27,West,270,1.8,2.2,79,0.00,,,0.00,WUHU216HW,2013-01-26 07:40:00,
2013-01-26 02:00:00,0.4,-4.7,30.27,NW,315,0.7,0.7,79,0.00,,,0.00,WUHU216HW,2013-01-26 08:00:00,
2013-01-26 02:05:00,0.4,-4.7,30.27,NW,315,0.7,0.7,79,0.00,,,0.00,WUHU216HW,2013-01-26 08:05:00,
2013-01-26 02:10:00,0.4,-4.7,30.27,NW,315,0.7,0.7,79,0.00,,,0.00,WUHU216HW,2013-01-26 08:10:00,
2013-01-26 02:30:00,-0.5,-5.5,30.26,East,90,0.0,0.0,79,0.00,,,0.00,WUHU216HW,2013-01-26 08:30:00,
2013-01-26 02:35:00,-0.5,-5.5,30.26,East,90,0.0,0.0,79,0.00,,,0.00,WUHU216HW,2013-01-26 08:35:00,
2013-01-26 02:40:00,-0.5,-5.5,30.26,East,90,0.0,0.0,79,0.00,,,0.00,WUHU216HW,2013-01-26 08:40:00,
2013-01-26 03:00:00,-0.9,-5.6,30.27,SW,225,1.1,1.1,80,0.00,,,0.00,WUHU216HW,2013-01-26 09:00:00,
2013-01-26 03:05:00,-0.9,-5.6,30.27,SW,225,0.9,1.1,80,0.00,,,0.00,WUHU216HW,2013-01-26 09:05:00,
2013-01-26 03:10:00,-0.9,-5.6,30.27,SW,225,0.9,0.9,80,0.00,,,0.00,WUHU216HW,2013-01-26 09:10:00,
2013-01-26 03:30:00,-1.4,-5.8,30.26,NNW,338,0.0,0.0,81,0.00,,,0.00,WUHU216HW,2013-01-26 09:30:00,
2013-01-26 03:35:00,-1.4,-5.8,30.26,NNW,338,0.0,0.0,81,0.00,,,0.00,WUHU216HW,2013-01-26 09:35:00,
2013-01-26 03:40:00,-1.4,-5.8,30.26,NNW,338,0.0,0.0,81,0.00,,,0.00,WUHU216HW,2013-01-26 09:40:00,
2013-01-26 04:00:00,-2.0,-6.7,30.25,NNE,23,0.9,0.9,80,0.00,,,0.00,WUHU216HW,2013-01-26 10:00:00,
2013-01-26 04:05:00,-2.0,-6.7,30.25,NNE,23,0.4,0.9,80,0.00,,,0.00,WUHU216HW,2013-01-26 10:05:00,
2013-01-26 04:10:00,-2.0,-6.7,30.25,NNE,23,0.4,0.9,80,0.00,,,0.00,WUHU216HW,2013-01-26 10:10:00,
2013-01-26 04:30:00,-2.2,-6.8,30.25,East,90,0.0,0.0,80,0.00,,,0.00,WUHU216HW,2013-01-26 10:30:00,
2013-01-26 04:35:00,-2.2,-6.8,30.25,East,90,0.0,0.0,80,0.00,,,0.00,WUHU216HW,2013-01-26 10:35:00,
2013-01-26 04:40:00,-2.2,-6.8,30.25,East,90,0.0,0.0,80,0.00,,,0.00,WUHU216HW,2013-01-26 10:40:00,
2013-01-26 05:00:00,-2.5,-7.2,30.25,ENE,68,0.0,0.0,80,0.00,,,0.00,WUHU216HW,2013-01-26 11:00:00,
2013-01-26 05:05:00,-2.5,-7.2,30.25,ENE,68,0.0,0.0,80,0.00,,,0.00,WUHU216HW,2013-01-26 11:05:00,
2013-01-26 05:10:00,-2.5,-7.2,30.25,ENE,68,0.0,0.0,80,0.00,,,0.00,WUHU216HW,2013-01-26 11:10:00,
2013-01-26 05:30:00,-2.3,-7.0,30.26,South,180,0.0,0.0,80,0.00,,,0.00,WUHU216HW,2013-01-26 11:30:00,
2013-01-26 05:35:00,-2.3,-7.0,30.26,South,180,0.0,0.0,80,0.00,,,0.00,WUHU216HW,2013-01-26 11:35:00,
2013-01-26 05:40:00,-2.3,-7.0,30.26,South,180,0.0,0.0,80,0.00,,,0.00,WUHU216HW,2013-01-26 11:40:00,
2013-01-26 06:00:00,-2.5,-7.2,30.27,SSW,203,0.0,0.0,80,0.00,,,0.00,WUHU216HW,2013-01-26 12:00:00,
2013-01-26 06:05:00,-2.5,-7.2,30.27,SSW,203,0.0,0.0,80,0.00,,,0.00,WUHU216HW,2013-01-26 12:05:00,
2013-01-26 06:10:00,-2.5,-7.2,30.27,SSW,203,0.0,0.0,80,0.00,,,0.00,WUHU216HW,2013-01-26 12:10:00,
2013-01-26 06:30:00,-3.2,-7.9,30.27,SW,225,0.0,0.0,80,0.00,,,0.00,WUHU216HW,2013-01-26 12:30:00,
2013-01-26 06:35:00,-3.2,-7.9,30.27,SW,225,0.0,0.0,80,0.00,,,0.00,WUHU216HW,2013-01-26 12:35:00,
2013-01-26 06:40:00,-3.2,-7.9,30.27,SW,225,0.0,0.0,80,0.00,,,0.00,WUHU216HW,2013-01-26 12:40:00,
2013-01-26 07:00:00,-4.0,-8.4,30.28,SSW,203,0.0,0.0,81,0.00,,,0.00,WUHU216HW,2013-01-26 13:00:00,
2013-01-26 07:05:00,-4.0,-8.4,30.28,SSW,203,0.0,0.0,81,0.00,,,0.00,WUHU216HW,2013-01-26 13:05:00,
2013-01-26 07:10:00,-4.0,-8.4,30.28,SSW,203,0.0,0.0,81,0.00,,,0.00,WUHU216HW,2013-01-26 13:10:00,
2013-01-26 07:30:00,-4.0,-8.6,30.29,SE,135,0.0,0.0,80,0.00,,,0.00,WUHU216HW,2013-01-26 13:30:00,
2013-01-26 07:35:00,-4.0,-8.6,30.29,SE,135,0.0,0.0,80,0.00,,,0.00,WUHU216HW,2013-01-26 13:35:00,
2013-01-26 07:40:00,-4.0,-8.6,30.29,SE,135,0.0,0.0,80,0.00,,,0.00,WUHU216HW,2013-01-26 13:40:00,
2013-01-26 08:00:00,-3.2,-7.9,30.29,ESE,113,0.0,0.0,80,0.00,,,0.00,WUHU216HW,2013-01-26 14:00:00,
2013-01-26 08:05:00,-3.2,-7.9,30.29,ESE,113,0.0,0.0,80,0.00,,,0.00,WUHU216HW,2013-01-26 14:05:00,
2013-01-26 08:10:00,-3.2,-7.9,30.29,ESE,113,0.0,0.0,80,0.00,,,0.00,WUHU216HW,2013-01-26 14:10:00,
2013-01-26 08:30:00,1.1,-3.5,30.29,East,90,0.0,0.0,81,0.00,,,0.00,WUHU216HW,2013-01-26 14:30:00,
2013-01-26 08:35:00,1.1,-3.5,30.29,East,90,0.0,0.0,81,0.00,,,0.00,WUHU216HW,2013-01-26 14:35:00,
2013-01-26 08:40:00,1.1,-3.5,30.29,East,90,0.0,0.0,81,0.00,,,0.00,WUHU216HW,2013-01-26 14:40:00,
2013-01-26 09:00:00,4.0,-0.9,30.29,SE,135,0.7,0.7,80,0.00,,,0.00,WUHU216HW,2013-01-26 15:00:00,
2013-01-26 09:05:00,4.0,-0.9,30.29,SE,135,0.7,0.7,80,0.00,,,0.00,WUHU216HW,2013-01-26 15:05:00,
2013-01-26 09:10:00,4.0,-0.9,30.29,SE,135,0.7,0.7,80,0.00,,,0.00,WUHU216HW,2013-01-26 15:10:00,
2013-01-26 09:30:00,4.1,-1.2,30.28,SE,135,3.6,3.6,78,0.00,,,0.00,WUHU216HW,2013-01-26 15:30:00,
2013-01-26 09:35:00,4.3,-1.1,30.29,SE,135,3.6,3.6,78,0.00,,,0.00,WUHU216HW,2013-01-26 15:35:00,
2013-01-26 09:40:00,4.3,-1.1,30.29,SE,135,3.6,3.6,78,0.00,,,0.00,WUHU216HW,2013-01-26 15:40:00,
2013-01-26 10:00:00,7.2,1.2,30.29,SSE,158,4.7,4.7,76,0.00,,,0.00,WUHU216HW,2013-01-26 16:00:00,
2013-01-26 10:05:00,7.4,1.4,30.29,SSE,158,4.7,4.7,76,0.00,,,0.00,WUHU216HW,2013-01-26 16:05:00,
2013-01-26 10:10:00,7.4,1.4,30.29,SSE,158,4.7,4.7,76,0.00,,,0.00,WUHU216HW,2013-01-26 16:10:00,
2013-01-26 10:30:00,8.1,1.5,30.26,SE,135,9.8,9.8,74,0.00,,,0.00,WUHU216HW,2013-01-26 16:30:00,
2013-01-26 10:35:00,7.9,1.4,30.26,SE,135,9.8,9.8,74,0.00,,,0.00,WUHU216HW,2013-01-26 16:35:00,
2013-01-26 10:40:00,7.9,1.4,30.26,SE,135,9.8,9.8,74,0.00,,,0.00,WUHU216HW,2013-01-26 16:40:00,
2013-01-26 11:00:00,9.7,2.7,30.27,SSE,158,3.8,3.8,73,0.00,,,0.00,WUHU216HW,2013-01-26 17:00:00,
2013-01-26 11:05:00,9.7,2.7,30.27,SE,135,4.7,4.7,73,0.00,,,0.00,WUHU216HW,2013-01-26 17:05:00,
2013-01-26 11:10:00,9.7,2.7,30.27,SE,135,4.7,4.7,73,0.00,,,0.00,WUHU216HW,2013-01-26 17:10:00,
2013-01-26 11:30:00,11.2,2.9,30.28,SE,135,6.5,6.5,69,0.00,,,0.00,WUHU216HW,2013-01-26 17:30:00,
2013-01-26 11:35:00,11.2,2.9,30.28,SE,135,6.9,6.9,69,0.00,,,0.00,WUHU216HW,2013-01-26 17:35:00,
2013-01-26 11:40:00,11.2,2.9,30.28,SE,135,6.9,6.9,69,0.00,,,0.00,WUHU216HW,2013-01-26 17:40:00,
2013-01-26 12:00:00,12.6,4.0,30.26,SE,135,5.1,5.1,68,0.00,,,0.00,WUHU216HW,2013-01-26 18:00:00,
2013-01-26 12:05:00,12.6,3.7,30.26,ESE,113,4.9,6.0,67,0.00,,,0.00,WUHU216HW,2013-01-26 18:05:00,
2013-01-26 12:10:00,12.6,3.7,30.26,ESE,113,4.9,6.0,67,0.00,,,0.00,WUHU216HW,2013-01-26 18:10:00,
2013-01-26 12:30:00,15.5,5.7,30.25,North,0,1.8,1.8,65,0.00,,,0.00,WUHU216HW,2013-01-26 18:30:00,
2013-01-26 12:35:00,15.5,5.7,30.25,North,0,1.8,1.8,65,0.00,,,0.00,WUHU216HW,2013-01-26 18:35:00,
2013-01-26 13:00:00,15.7,4.9,30.24,East,90,4.5,4.5,62,0.00,,,0.00,WUHU216HW,2013-01-26 19:00:00,
2013-01-26 13:05:00,16.2,5.1,30.24,SE,134,7.8,9.2,61,0.00,,,0.00,WUHU216HW,2013-01-26 19:05:00,
2013-01-26 13:10:00,16.6,5.8,30.24,SSE,158,6.0,9.2,62,0.00,,,0.00,WUHU216HW,2013-01-26 19:10:00,
2013-01-26 13:11:00,16.6,5.8,30.23,ENE,68,4.0,9.2,62,0.00,,,0.00,WUHU216HW,2013-01-26 19:11:00,
2013-01-26 13:15:00,16.9,5.8,30.24,ESE,116,3.4,7.6,61,0.00,,,0.00,WUHU216HW,2013-01-26 19:15:00,
2013-01-26 13:16:00,16.9,5.8,30.24,ESE,123,2.6,6.5,61,0.00,,,0.00,WUHU216HW,2013-01-26 19:16:00,
2013-01-26 13:20:00,16.9,5.8,30.23,SE,137,3.9,7.6,61,0.00,,,0.00,WUHU216HW,2013-01-26 19:20:00,
2013-01-26 13:21:00,16.9,5.8,30.23,SE,138,3.8,7.6,61,0.00,,,0.00,WUHU216HW,2013-01-26 19:21:00,
2013-01-26 13:25:00,16.7,5.6,30.23,SE,135,5.1,7.6,61,0.00,,,0.00,WUHU216HW,2013-01-26 19:25:00,
2013-01-26 13:26:00,16.7,5.6,30.23,East,90,7.2,7.6,61,0.00,,,0.00,WUHU216HW,2013-01-26 19:26:00,
2013-01-26 13:30:00,16.6,5.4,30.22,SE,124,6.9,8.7,61,0.00,,,0.00,WUHU216HW,2013-01-26 19:30:00,
2013-01-26 13:31:00,16.6,5.4,30.22,SE,126,6.3,8.7,61,0.00,,,0.00,WUHU216HW,2013-01-26 19:31:00,
2013-01-26 13:36:00,16.6,5.4,30.22,SE,128,7.0,8.7,61,0.00,,,0.00,WUHU216HW,2013-01-26 19:36:00,
2013-01-26 13:41:00,17.1,6.0,30.21,SE,135,7.6,8.5,61,0.00,,,0.00,WUHU216HW,2013-01-26 19:41:00,
2013-01-26 13:46:00,17.3,5.8,30.21,ESE,113,10.7,13.2,60,0.00,,,0.00,WUHU216HW,2013-01-26 19:46:00,
2013-01-26 13:51:00,16.9,5.4,30.20,SE,133,8.5,13.2,60,0.00,,,0.00,WUHU216HW,2013-01-26 19:51:00,
2013-01-26 13:52:00,16.9,5.4,30.20,ESE,113,8.9,13.2,60,0.00,,,0.00,WUHU216HW,2013-01-26 19:52:00,
2013-01-26 13:56:00,17.3,5.4,30.19,SE,131,8.3,11.0,59,0.00,,,0.00,WUHU216HW,2013-01-26 19:56:00,
2013-01-26 13:57:00,17.3,5.8,30.19,SE,132,8.3,11.0,60,0.00,,,0.00,WUHU216HW,2013-01-26 19:57:00,
2013-01-26 14:01:00,17.1,5.2,30.19,ESE,113,10.3,10.7,59,0.00,,,0.00,WUHU216HW,2013-01-26 20:01:00,
2013-01-26 14:02:00,17.1,5.2,30.19,South,180,12.1,12.1,59,0.00,,,0.00,WUHU216HW,2013-01-26 20:02:00,
2013-01-26 14:06:00,16.9,5.1,30.19,ESE,113,8.5,12.1,59,0.00,,,0.00,WUHU216HW,2013-01-26 20:06:00,
2013-01-26 14:07:00,16.7,5.2,30.19,ESE,113,8.3,12.1,60,0.00,,,0.00,WUHU216HW,2013-01-26 20:07:00,
2013-01-26 14:08:00,16.9,5.1,30.19,ESE,113,9.2,12.1,59,0.00,,,0.00,WUHU216HW,2013-01-26 20:08:00,
2013-01-26 14:11:00,16.7,4.9,30.19,SSE,158,11.4,12.5,59,0.00,,,0.00,WUHU216HW,2013-01-26 20:11:00,
2013-01-26 14:12:00,16.7,4.9,30.19,ESE,121,10.2,12.5,59,0.00,,,0.00,WUHU216HW,2013-01-26 20:12:00,
2013-01-26 14:13:00,16.9,5.4,30.19,SE,124,9.0,12.5,60,0.00,,,0.00,WUHU216HW,2013-01-26 20:13:00,
2013-01-26 14:15:00,17.5,6.3,30.19,SSE,158,8.7,8.7,61,0.00,,,0.00,WUHU216HW,2013-01-26 20:15:00,
2013-01-26 14:16:00,17.5,6.3,30.19,SSE,158,8.7,12.5,61,0.00,,,0.00,WUHU216HW,2013-01-26 20:16:00,
2013-01-26 14:17:00,17.5,6.3,30.19,SSE,158,8.7,12.5,61,0.00,,,0.00,WUHU216HW,2013-01-26 20:17:00,
2013-01-26 14:18:00,17.5,6.3,30.19,SSE,158,8.7,12.5,61,0.00,,,0.00,WUHU216HW,2013-01-26 20:18:00,
2013-01-26 14:22:00,17.5,6.3,30.19,SSE,158,8.7,8.7,61,0.00,,,0.00,WUHU216HW,2013-01-26 20:22:00,
2013-01-26 14:23:00,17.5,6.3,30.19,SSE,158,8.7,8.7,61,0.00,,,0.00,WUHU216HW,2013-01-26 20:23:00,
2013-01-26 14:45:00,17.1,6.0,30.17,East,90,7.2,7.2,61,0.00,,,0.00,WUHU216HW,2013-01-26 20:45:00,
2013-01-26 14:46:00,17.1,6.0,30.17,ENE,76,6.1,7.2,61,0.00,,,0.00,WUHU216HW,2013-01-26 20:46:00,
2013-01-26 14:50:00,17.1,6.0,30.17,ENE,68,5.6,7.2,61,0.00,,,0.00,WUHU216HW,2013-01-26 20:50:00,
2013-01-26 14:51:00,17.1,6.0,30.17,ENE,68,5.6,7.2,61,0.00,,,0.00,WUHU216HW,2013-01-26 20:51:00,
2013-01-26 15:00:00,16.7,5.6,30.18,SE,135,6.9,6.9,61,0.00,,,0.00,WUHU216HW,2013-01-26 21:00:00,
2013-01-26 15:01:00,16.7,5.6,30.18,SE,135,6.9,6.9,61,0.00,,,0.00,WUHU216HW,2013-01-26 21:01:00,
2013-01-26 15:05:00,16.7,5.6,30.18,SE,135,6.9,6.9,61,0.00,,,0.00,WUHU216HW,2013-01-26 21:05:00,
2013-01-26 15:06:00,16.7,5.6,30.18,SE,135,6.9,6.9,61,0.00,,,0.00,WUHU216HW,2013-01-26 21:06:00,
2013-01-26 15:30:00,16.9,5.8,30.18,SSE,158,6.0,6.0,61,0.00,,,0.00,WUHU216HW,2013-01-26 21:30:00,
2013-01-26 15:35:00,16.9,5.8,30.18,SE,135,7.8,7.8,61,0.00,,,0.00,WUHU216HW,2013-01-26 21:35:00,
2013-01-26 15:36:00,16.9,5.8,30.18,SE,135,7.8,7.8,61,0.00,,,0.00,WUHU216HW,2013-01-26 21:36:00,
2013-01-26 16:00:00,17.3,6.8,30.17,SE,135,2.7,2.7,63,0.00,,,0.00,WUHU216HW,2013-01-26 22:00:00,
2013-01-26 16:01:00,17.3,6.8,30.17,SE,135,5.4,5.4,63,0.00,,,0.00,WUHU216HW,2013-01-26 22:01:00,
2013-01-26 16:05:00,17.3,6.8,30.17,SE,135,5.4,5.4,63,0.00,,,0.00,WUHU216HW,2013-01-26 22:05:00,
2013-01-26 16:06:00,17.3,6.8,30.17,SE,135,5.4,5.4,63,0.00,,,0.00,WUHU216HW,2013-01-26 22:06:00,
2013-01-26 16:30:00,17.6,7.1,30.15,SE,135,11.6,11.6,63,0.00,,,0.00,WUHU216HW,2013-01-26 22:30:00,
2013-01-26 16:35:00,17.6,7.1,30.15,ESE,113,10.5,11.6,63,0.00,,,0.00,WUHU216HW,2013-01-26 22:35:00,
2013-01-26 16:36:00,17.6,7.1,30.15,ESE,113,10.5,11.6,63,0.00,,,0.00,WUHU216HW,2013-01-26 22:36:00,
2013-01-26 16:40:00,17.6,7.1,30.15,ESE,113,10.5,10.5,63,0.00,,,0.00,WUHU216HW,2013-01-26 22:40:00,
2013-01-26 17:00:00,18.0,7.8,30.14,ESE,113,8.5,8.5,64,0.00,,,0.00,WUHU216HW,2013-01-26 23:00:00,
2013-01-26 17:05:00,17.8,7.7,30.14,SE,135,6.0,8.5,64,0.00,,,0.00,WUHU216HW,2013-01-26 23:05:00,
2013-01-26 17:30:00,18.4,8.5,30.14,East,90,5.1,5.1,65,0.00,,,0.00,WUHU216HW,2013-01-26 23:30:00,
2013-01-26 17:31:00,18.2,8.3,30.13,ESE,113,8.5,8.5,65,0.00,,,0.00,WUHU216HW,2013-01-26 23:31:00,
2013-01-26 17:35:00,18.2,8.3,30.13,ESE,113,8.5,8.5,65,0.00,,,0.00,WUHU216HW,2013-01-26 23:35:00,
2013-01-26 17:36:00,18.2,8.3,30.13,ESE,113,8.5,8.5,65,0.00,,,0.00,WUHU216HW,2013-01-26 23:36:00,
2013-01-26 18:00:00,18.2,9.0,30.12,SE,135,3.8,3.8,67,0.00,,,0.00,WUHU216HW,2013-01-27 00:00:00,
2013-01-26 18:05:00,18.2,9.0,30.12,SE,135,6.0,6.0,67,0.00,,,0.00,WUHU216HW,2013-01-27 00:05:00,
2013-01-26 18:30:00,18.4,9.6,30.12,SE,135,6.0,6.0,68,0.00,,,0.00,WUHU216HW,2013-01-27 00:30:00,
2013-01-26 18:35:00,18.2,9.0,30.12,SE,135,6.0,6.0,67,0.00,,,0.00,WUHU216HW,2013-01-27 00:35:00,
2013-01-26 18:36:00,18.2,9.0,30.12,SE,135,6.0,6.0,67,0.00,,,0.00,WUHU216HW,2013-01-27 00:36:00,
2013-01-26 18:40:00,18.2,9.0,30.12,SE,135,6.0,6.0,67,0.00,,,0.00,WUHU216HW,2013-01-27 00:40:00,
2013-01-26 19:00:00,18.4,9.6,30.11,East,90,7.6,7.6,68,0.00,,,0.00,WUHU216HW,2013-01-27 01:00:00,
2013-01-26 19:05:00,18.4,9.6,30.11,SE,135,4.3,7.6,68,0.00,,,0.00,WUHU216HW,2013-01-27 01:05:00,
2013-01-26 19:10:00,18.4,9.6,30.11,SE,135,4.3,7.6,68,0.00,,,0.00,WUHU216HW,2013-01-27 01:10:00,
2013-01-26 19:30:00,18.7,9.8,30.11,SSE,158,4.7,4.7,68,0.00,,,0.00,WUHU216HW,2013-01-27 01:30:00,
2013-01-26 19:31:00,18.7,9.8,30.11,ESE,113,5.4,5.4,68,0.00,,,0.00,WUHU216HW,2013-01-27 01:31:00,
2013-01-26 19:35:00,18.7,9.8,30.11,ESE,113,5.4,5.4,68,0.00,,,0.00,WUHU216HW,2013-01-27 01:35:00,
2013-01-26 19:36:00,18.7,9.8,30.11,ESE,113,5.4,5.4,68,0.00,,,0.00,WUHU216HW,2013-01-27 01:36:00,
2013-01-26 19:40:00,18.7,9.8,30.11,ESE,113,5.4,5.4,68,0.00,,,0.00,WUHU216HW,2013-01-27 01:40:00,
2013-01-26 20:00:00,19.6,11.0,30.09,SE,135,8.7,8.7,69,0.00,,,0.00,WUHU216HW,2013-01-27 02:00:00,
2013-01-26 20:05:00,19.6,11.0,30.09,SE,135,7.4,8.7,69,0.00,,,0.00,WUHU216HW,2013-01-27 02:05:00,
2013-01-26 20:10:00,19.6,11.0,30.09,SE,135,7.4,7.4,69,0.00,,,0.00,WUHU216HW,2013-01-27 02:10:00,
2013-01-26 20:30:00,20.2,11.2,30.09,SSE,158,6.5,6.5,68,0.00,,,0.00,WUHU216HW,2013-01-27 02:30:00,
2013-01-26 20:35:00,20.2,11.2,30.09,SSE,158,6.3,6.5,68,0.00,,,0.00,WUHU216HW,2013-01-27 02:35:00,
2013-01-26 21:00:00,20.7,11.7,30.10,SSE,158,7.6,7.6,68,0.00,,,0.00,WUHU216HW,2013-01-27 03:00:00,
2013-01-26 21:01:00,20.7,11.7,30.10,SE,135,7.6,7.6,68,0.00,,,0.00,WUHU216HW,2013-01-27 03:01:00,
2013-01-26 21:05:00,20.7,11.7,30.10,SE,135,7.6,7.6,68,0.00,,,0.00,WUHU216HW,2013-01-27 03:05:00,
2013-01-26 21:06:00,20.7,11.7,30.10,SE,135,7.6,7.6,68,0.00,,,0.00,WUHU216HW,2013-01-27 03:06:00,
2013-01-26 21:10:00,20.7,11.7,30.10,SE,135,7.6,7.6,68,0.00,,,0.00,WUHU216HW,2013-01-27 03:10:00,
2013-01-26 21:30:00,21.2,12.2,30.09,SE,135,5.6,5.6,68,0.00,,,0.00,WUHU216HW,2013-01-27 03:30:00,
2013-01-26 21:35:00,21.2,12.2,30.09,SE,135,5.6,5.6,68,0.00,,,0.00,WUHU216HW,2013-01-27 03:35:00,
2013-01-26 21:40:00,21.2,12.2,30.09,SE,135,5.6,5.6,68,0.00,,,0.00,WUHU216HW,2013-01-27 03:40:00,
2013-01-26 22:00:00,21.8,12.4,30.09,SE,135,5.8,5.8,67,0.00,,,0.00,WUHU216HW,2013-01-27 04:00:00,
2013-01-26 22:05:00,21.6,12.2,30.09,ESE,113,3.6,5.8,67,0.00,,,0.00,WUHU216HW,2013-01-27 04:05:00,
2013-01-26 22:30:00,22.0,12.6,30.08,SSE,158,4.3,4.3,67,0.00,,,0.00,WUHU216HW,2013-01-27 04:30:00,
2013-01-26 22:31:00,22.0,12.6,30.08,SSE,158,4.3,4.3,67,0.00,,,0.00,WUHU216HW,2013-01-27 04:31:00,
2013-01-26 22:35:00,22.0,12.6,30.08,SSE,158,4.3,4.3,67,0.00,,,0.00,WUHU216HW,2013-01-27 04:35:00,
2013-01-26 22:36:00,22.0,12.6,30.08,SSE,158,4.3,4.3,67,0.00,,,0.00,WUHU216HW,2013-01-27 04:36:00,
2013-01-26 23:00:00,22.0,13.0,30.09,SE,135,4.3,4.3,68,0.00,,,0.00,WUHU216HW,2013-01-27 05:00:00,
2013-01-26 23:01:00,22.0,13.0,30.09,SSE,158,5.1,5.1,68,0.00,,,0.00,WUHU216HW,2013-01-27 05:01:00,
2013-01-26 23:02:00,22.0,13.0,30.09,SSE,158,5.1,5.1,68,0.00,,,0.00,WUHU216HW,2013-01-27 05:02:00,
2013-01-26 23:05:00,22.0,13.0,30.09,SSE,158,5.1,5.1,68,0.00,,,0.00,WUHU216HW,2013-01-27 05:05:00,
2013-01-26 23:07:00,22.0,13.0,30.09,SSE,158,5.1,5.1,68,0.00,,,0.00,WUHU216HW,2013-01-27 05:07:00,
2013-01-26 23:30:00,21.8,12.8,30.08,East,90,4.5,4.5,68,0.00,,,0.00,WUHU216HW,2013-01-27 05:30:00,
2013-01-26 23:35:00,21.6,12.6,30.08,SE,135,4.5,4.5,68,0.00,,,0.00,WUHU216HW,2013-01-27 05:35:00,
2013-01-26 23:36:00,21.6,12.6,30.08,SE,135,4.5,4.5,68,0.00,,,0.00,WUHU216HW,2013-01-27 05:36:00,